createdAt,value
2023-04-16T00:01:36.794Z,2.81
2023-04-16T00:04:03.798Z,2.83
2023-04-16T00:06:31.029Z,2.99
2023-04-16T00:08:58.420Z,3.03
2023-04-16T00:11:25.378Z,2.82
2023-04-16T00:13:52.212Z,2.90
2023-04-16T00:16:19.277Z,2.67
2023-04-16T00:18:46.258Z,2.40
2023-04-16T00:21:13.185Z,2.88
2023-04-16T00:23:40.028Z,2.87
2023-04-16T00:26:07.082Z,3.05
2023-04-16T00:28:33.899Z,2.99
2023-04-16T00:31:01.840Z,2.79
2023-04-16T00:33:29.477Z,2.67
2023-04-16T00:35:56.528Z,2.65
2023-04-16T00:38:23.438Z,2.67
2023-04-16T00:40:50.494Z,2.73
2023-04-16T00:43:27.094Z,2.86
2023-04-16T00:45:56.983Z,2.69
2023-04-16T00:48:24.262Z,2.53
2023-04-16T00:50:51.196Z,2.48
2023-04-16T00:53:18.064Z,2.58
2023-04-16T00:55:45.634Z,2.57
2023-04-16T00:58:13.034Z,2.50
2023-04-16T01:00:41.023Z,2.47
2023-04-16T01:03:08.134Z,2.43
2023-04-16T01:05:36.809Z,2.42
2023-04-16T01:08:03.803Z,2.63
2023-04-16T01:10:31.467Z,2.72
2023-04-16T01:12:58.309Z,2.74
2023-04-16T01:15:25.188Z,2.72
2023-04-16T01:17:52.152Z,2.32
2023-04-16T01:20:19.234Z,2.35
2023-04-16T01:22:46.101Z,2.47
2023-04-16T01:25:16.037Z,2.48
2023-04-16T01:27:42.991Z,2.54
2023-04-16T01:30:10.166Z,2.34
2023-04-16T01:32:50.322Z,2.59
2023-04-16T01:35:17.608Z,2.29
2023-04-16T01:37:44.945Z,2.18
2023-04-16T01:40:11.940Z,2.35
2023-04-16T01:42:38.809Z,2.35
2023-04-16T01:45:06.503Z,2.29
2023-04-16T01:47:33.447Z,2.39
2023-04-16T01:50:01.391Z,2.50
2023-04-16T01:52:29.660Z,2.31
2023-04-16T01:54:57.602Z,2.16
2023-04-16T01:57:24.495Z,2.24
2023-04-16T01:59:53.068Z,2.23
2023-04-16T02:02:20.312Z,2.21
2023-04-16T02:04:47.474Z,2.39
2023-04-16T02:07:14.581Z,2.34
2023-04-16T02:09:41.604Z,2.26
2023-04-16T02:12:08.879Z,2.13
2023-04-16T02:14:35.830Z,2.24
2023-04-16T02:17:03.385Z,2.08
2023-04-16T02:19:37.933Z,2.30
2023-04-16T02:22:05.422Z,2.40
2023-04-16T02:24:32.300Z,2.29
2023-04-16T02:27:02.348Z,2.36
2023-04-16T02:29:29.270Z,2.52
2023-04-16T02:32:03.560Z,2.51
2023-04-16T02:34:32.723Z,2.41
2023-04-16T02:36:59.611Z,2.53
2023-04-16T02:39:26.642Z,2.43
2023-04-16T02:41:53.668Z,2.57
2023-04-16T02:44:21.317Z,2.66
2023-04-16T02:46:48.162Z,2.77
2023-04-16T02:49:15.081Z,2.52
2023-04-16T02:51:41.898Z,3.49
2023-04-16T02:54:08.827Z,4.59
2023-04-16T02:56:35.718Z,5.09
2023-04-16T02:59:02.604Z,5.39
2023-04-16T03:01:29.957Z,5.98
2023-04-16T03:03:57.090Z,6.59
2023-04-16T03:06:24.200Z,7.34
2023-04-16T03:08:51.085Z,8.04
2023-04-16T03:11:17.966Z,9.48
2023-04-16T03:13:45.006Z,9.64
2023-04-16T03:16:11.892Z,9.92
2023-04-16T03:18:38.967Z,10.66
2023-04-16T03:21:05.849Z,10.92
2023-04-16T03:23:32.790Z,11.47
2023-04-16T03:25:59.780Z,11.90
2023-04-16T03:28:27.046Z,12.53
2023-04-16T03:30:54.071Z,12.92
2023-04-16T03:33:21.420Z,13.75
2023-04-16T03:35:55.501Z,14.34
2023-04-16T03:38:24.307Z,14.79
2023-04-16T03:40:51.370Z,15.08
2023-04-16T03:43:18.557Z,15.27
2023-04-16T03:45:46.107Z,14.85
2023-04-16T03:48:13.843Z,15.88
2023-04-16T03:50:40.723Z,16.32
2023-04-16T03:53:09.495Z,16.60
2023-04-16T03:55:36.677Z,16.52
2023-04-16T03:58:03.689Z,16.61
2023-04-16T04:00:32.321Z,16.54
2023-04-16T04:03:10.587Z,16.88
2023-04-16T04:05:40.662Z,16.77
2023-04-16T04:08:09.704Z,16.81
2023-04-16T04:10:37.651Z,16.87
2023-04-16T04:13:07.250Z,16.97
2023-04-16T04:15:36.259Z,16.93
2023-04-16T04:18:03.171Z,16.68
2023-04-16T04:20:30.330Z,16.63
2023-04-16T04:22:57.918Z,16.25
2023-04-16T04:25:26.162Z,15.56
2023-04-16T04:27:53.208Z,15.58
2023-04-16T04:30:20.277Z,14.98
2023-04-16T04:32:47.171Z,14.72
2023-04-16T04:35:16.044Z,14.32
2023-04-16T04:37:42.892Z,13.93
2023-04-16T04:40:16.920Z,13.65
2023-04-16T04:42:44.856Z,13.56
2023-04-16T04:45:12.190Z,13.60
2023-04-16T04:47:40.871Z,13.69
2023-04-16T04:50:08.407Z,13.32
2023-04-16T04:52:35.544Z,13.41
2023-04-16T04:55:03.071Z,13.32
2023-04-16T04:57:30.591Z,13.48
2023-04-16T04:59:57.532Z,13.39
2023-04-16T05:02:24.757Z,13.29
2023-04-16T05:04:51.706Z,13.52
2023-04-16T05:07:18.663Z,13.32
2023-04-16T05:09:45.555Z,13.39
2023-04-16T05:12:12.517Z,13.29
2023-04-16T05:14:39.462Z,13.14
2023-04-16T05:17:06.461Z,13.36
2023-04-16T05:19:33.468Z,13.42
2023-04-16T05:22:00.421Z,12.72
2023-04-16T05:24:27.321Z,12.91
2023-04-16T05:26:54.296Z,13.03
2023-04-16T05:29:21.119Z,13.80
2023-04-16T05:31:48.074Z,13.90
2023-04-16T05:34:14.967Z,13.63
2023-04-16T05:36:41.856Z,13.66
2023-04-16T05:39:09.103Z,13.66
2023-04-16T05:41:36.305Z,13.71
2023-04-16T05:44:03.124Z,13.37
2023-04-16T05:46:32.362Z,13.43
2023-04-16T05:48:59.405Z,13.35
2023-04-16T05:51:26.435Z,13.24
2023-04-16T05:54:00.119Z,13.51
2023-04-16T05:56:27.081Z,13.63
2023-04-16T05:58:53.926Z,13.75
2023-04-16T06:01:25.615Z,13.88
2023-04-16T06:03:56.533Z,14.00
2023-04-16T06:06:26.386Z,14.33
2023-04-16T06:08:53.385Z,14.42
2023-04-16T06:11:20.195Z,14.62
2023-04-16T06:13:47.047Z,14.52
2023-04-16T06:16:13.946Z,14.68
2023-04-16T06:18:42.910Z,15.03
2023-04-16T06:21:09.874Z,15.21
2023-04-16T06:23:36.714Z,15.19
2023-04-16T06:26:03.640Z,15.50
2023-04-16T06:28:30.653Z,15.32
2023-04-16T06:30:57.614Z,15.18
2023-04-16T06:33:24.440Z,15.14
2023-04-16T06:35:51.371Z,15.07
2023-04-16T06:38:18.656Z,15.21
2023-04-16T06:40:45.549Z,15.29
2023-04-16T06:43:14.705Z,15.38
2023-04-16T06:45:42.258Z,15.32
2023-04-16T06:48:09.378Z,15.39
2023-04-16T06:50:36.340Z,15.54
2023-04-16T06:53:03.414Z,15.38
2023-04-16T06:55:30.296Z,15.42
2023-04-16T06:57:59.691Z,15.32
2023-04-16T07:00:26.618Z,15.45
2023-04-16T07:02:54.671Z,15.59
2023-04-16T07:05:23.424Z,15.21
2023-04-16T07:07:53.510Z,15.31
2023-04-16T07:10:20.360Z,15.56
2023-04-16T07:12:47.341Z,15.56
2023-04-16T07:15:14.181Z,15.39
2023-04-16T07:17:41.133Z,15.55
2023-04-16T07:20:08.768Z,15.29
2023-04-16T07:22:35.791Z,15.57
2023-04-16T07:25:02.732Z,15.90
2023-04-16T07:27:29.596Z,16.32
2023-04-16T07:29:56.404Z,16.20
2023-04-16T07:32:23.481Z,16.10
2023-04-16T07:34:50.464Z,16.30
2023-04-16T07:37:17.290Z,15.83
2023-04-16T07:39:44.128Z,15.86
2023-04-16T07:42:11.118Z,16.22
2023-04-16T07:44:38.027Z,16.37
2023-04-16T07:47:05.803Z,16.01
2023-04-16T07:49:32.925Z,16.37
2023-04-16T07:51:59.779Z,16.13
2023-04-16T07:54:28.495Z,16.00
2023-04-16T07:56:56.138Z,16.25
2023-04-16T07:59:24.408Z,16.31
2023-04-16T08:01:53.501Z,16.23
2023-04-16T08:04:20.679Z,16.57
2023-04-16T08:06:47.581Z,16.69
2023-04-16T08:09:14.456Z,16.83
2023-04-16T08:11:41.343Z,16.77
2023-04-16T08:14:08.577Z,16.41
2023-04-16T08:16:35.400Z,16.19
2023-04-16T08:19:02.290Z,16.14
2023-04-16T08:21:29.184Z,16.37
2023-04-16T08:23:56.093Z,16.34
2023-04-16T08:26:23.178Z,16.65
2023-04-16T08:28:50.042Z,16.64
2023-04-16T08:31:17.178Z,16.76
2023-04-16T08:33:44.094Z,16.76
2023-04-16T08:36:11.059Z,16.59
2023-04-16T08:38:37.902Z,16.38
2023-04-16T08:41:07.489Z,16.78
2023-04-16T08:43:38.187Z,16.77
2023-04-16T08:46:08.976Z,16.94
2023-04-16T08:48:37.877Z,16.68
2023-04-16T08:51:10.502Z,16.57
2023-04-16T08:53:49.534Z,16.85
2023-04-16T08:56:20.302Z,16.86
2023-04-16T08:58:50.104Z,17.09
2023-04-16T09:01:19.210Z,17.21
2023-04-16T09:03:48.468Z,17.07
2023-04-16T09:06:16.571Z,17.15
2023-04-16T09:08:48.191Z,16.54
2023-04-16T09:11:18.144Z,16.80
2023-04-16T09:13:46.668Z,16.81
2023-04-16T09:16:14.387Z,16.80
2023-04-16T09:18:41.635Z,17.25
2023-04-16T09:21:10.482Z,17.21
2023-04-16T09:23:37.967Z,17.01
2023-04-16T09:26:05.454Z,17.03
2023-04-16T09:28:49.235Z,17.20
2023-04-16T09:31:18.238Z,17.52
2023-04-16T09:34:07.718Z,17.51
2023-04-16T09:36:36.074Z,17.33
2023-04-16T09:39:04.388Z,17.58
2023-04-16T09:41:33.502Z,17.53
2023-04-16T09:44:02.447Z,17.40
2023-04-16T09:46:36.431Z,17.28
2023-04-16T09:49:13.484Z,17.84
2023-04-16T09:51:45.066Z,17.90
2023-04-16T09:54:12.150Z,17.84
2023-04-16T09:56:43.736Z,17.81
2023-04-16T09:59:18.127Z,17.87
2023-04-16T10:01:45.407Z,18.08
2023-04-16T10:04:12.725Z,18.16
2023-04-16T10:06:39.820Z,18.07
2023-04-16T10:09:10.030Z,17.76
2023-04-16T10:11:37.936Z,18.10
2023-04-16T10:14:05.025Z,17.88
2023-04-16T10:16:33.116Z,17.50
2023-04-16T10:19:00.145Z,18.11
2023-04-16T10:21:27.762Z,18.20
2023-04-16T10:23:54.698Z,17.92
2023-04-16T10:26:21.734Z,17.93
2023-04-16T10:28:48.902Z,17.48
2023-04-16T10:31:16.438Z,17.24
2023-04-16T10:33:44.823Z,17.52
2023-04-16T10:36:23.687Z,17.81
2023-04-16T10:38:51.737Z,17.63
2023-04-16T10:41:20.773Z,17.69
2023-04-16T10:43:49.529Z,17.63
2023-04-16T10:46:37.878Z,17.97
2023-04-16T10:49:24.643Z,17.90
2023-04-16T10:52:01.079Z,17.84
2023-04-16T10:54:30.424Z,17.81
2023-04-16T10:57:01.222Z,17.71
2023-04-16T10:59:34.383Z,17.91
2023-04-16T11:02:08.261Z,18.06
2023-04-16T11:04:36.903Z,18.01
2023-04-16T11:07:12.962Z,17.91
2023-04-16T11:09:44.036Z,18.14
2023-04-16T11:12:13.631Z,18.30
2023-04-16T11:14:47.052Z,18.35
2023-04-16T11:17:14.062Z,18.46
2023-04-16T11:19:43.094Z,18.39
2023-04-16T11:22:13.333Z,18.26
2023-04-16T11:24:40.225Z,17.97
2023-04-16T11:27:09.940Z,18.19
2023-04-16T11:29:36.936Z,17.88
2023-04-16T11:32:03.905Z,17.43
2023-04-16T11:34:30.978Z,16.99
2023-04-16T11:36:57.911Z,17.65
2023-04-16T11:39:25.084Z,17.80
2023-04-16T11:41:53.469Z,17.78
2023-04-16T11:44:21.867Z,17.68
2023-04-16T11:46:49.980Z,17.91
2023-04-16T11:49:17.278Z,17.94
2023-04-16T11:51:46.590Z,17.72
2023-04-16T11:54:24.558Z,17.83
2023-04-16T11:56:53.290Z,17.28
2023-04-16T11:59:22.465Z,17.60
2023-04-16T12:01:54.382Z,17.63
2023-04-16T12:04:25.138Z,17.41
2023-04-16T12:07:11.749Z,17.82
2023-04-16T12:09:41.034Z,17.64
2023-04-16T12:12:31.928Z,17.83
2023-04-16T12:15:00.329Z,18.13
2023-04-16T12:17:27.256Z,17.75
2023-04-16T12:20:02.347Z,17.68
2023-04-16T12:22:31.668Z,17.57
2023-04-16T12:24:59.522Z,16.94
2023-04-16T12:27:26.550Z,17.50
2023-04-16T12:30:04.444Z,17.80
2023-04-16T12:32:31.440Z,17.62
2023-04-16T12:34:58.392Z,17.50
2023-04-16T12:37:25.316Z,17.56
2023-04-16T12:39:52.153Z,17.48
2023-04-16T12:42:19.099Z,17.54
2023-04-16T12:44:45.914Z,17.33
2023-04-16T12:47:13.021Z,17.45
2023-04-16T12:49:40.090Z,17.64
2023-04-16T12:52:07.075Z,17.60
2023-04-16T12:54:34.051Z,17.52
2023-04-16T12:57:00.993Z,17.35
2023-04-16T12:59:27.945Z,17.52
2023-04-16T13:01:55.067Z,17.78
2023-04-16T13:04:23.521Z,17.46
2023-04-16T13:06:52.522Z,17.62
2023-04-16T13:09:19.554Z,17.62
2023-04-16T13:11:46.524Z,17.69
2023-04-16T13:14:13.400Z,17.44
2023-04-16T13:16:40.316Z,17.52
2023-04-16T13:19:07.160Z,17.58
2023-04-16T13:21:34.388Z,17.54
2023-04-16T13:24:01.345Z,17.50
2023-04-16T13:26:28.273Z,17.14
2023-04-16T13:28:55.208Z,17.14
2023-04-16T13:31:22.584Z,16.99
2023-04-16T13:33:50.516Z,17.13
2023-04-16T13:36:17.446Z,17.07
2023-04-16T13:38:44.493Z,16.92
2023-04-16T13:41:13.753Z,17.04
2023-04-16T13:43:40.584Z,16.74
2023-04-16T13:46:08.148Z,16.92
2023-04-16T13:48:35.068Z,16.78
2023-04-16T13:51:03.276Z,16.77
2023-04-16T13:53:30.144Z,16.75
2023-04-16T13:55:57.117Z,16.49
2023-04-16T13:58:24.041Z,16.69
2023-04-16T14:00:51.032Z,16.70
2023-04-16T14:03:17.950Z,16.73
2023-04-16T14:05:44.921Z,16.70
2023-04-16T14:08:11.752Z,16.74
2023-04-16T14:10:38.733Z,16.51
2023-04-16T14:13:05.609Z,16.54
2023-04-16T14:15:32.480Z,16.51
2023-04-16T14:17:59.306Z,16.45
2023-04-16T14:20:26.272Z,16.40
2023-04-16T14:22:53.078Z,16.33
2023-04-16T14:25:19.988Z,16.36
2023-04-16T14:27:46.878Z,16.33
2023-04-16T14:30:13.934Z,16.42
2023-04-16T14:32:40.845Z,16.33
2023-04-16T14:35:08.256Z,16.41
2023-04-16T14:37:36.190Z,16.20
2023-04-16T14:40:03.618Z,16.03
2023-04-16T14:42:30.545Z,16.09
2023-04-16T14:44:57.502Z,16.05
2023-04-16T14:47:24.404Z,16.02
2023-04-16T14:49:51.361Z,16.04
2023-04-16T14:52:18.248Z,15.83
2023-04-16T14:54:45.185Z,15.81
2023-04-16T14:57:11.975Z,15.72
2023-04-16T14:59:38.931Z,15.79
2023-04-16T15:02:06.427Z,15.76
2023-04-16T15:04:33.560Z,15.78
2023-04-16T15:07:00.493Z,15.64
2023-04-16T15:09:27.410Z,15.48
2023-04-16T15:11:54.635Z,15.54
2023-04-16T15:14:21.729Z,15.54
2023-04-16T15:16:48.613Z,15.46
2023-04-16T15:19:15.749Z,15.39
2023-04-16T15:21:42.596Z,15.30
2023-04-16T15:24:09.749Z,15.26
2023-04-16T15:26:37.016Z,15.10
2023-04-16T15:29:04.284Z,14.91
2023-04-16T15:31:31.236Z,14.87
2023-04-16T15:33:58.232Z,14.83
2023-04-16T15:36:25.118Z,14.70
2023-04-16T15:38:52.117Z,14.55
2023-04-16T15:41:19.023Z,14.51
2023-04-16T15:43:45.942Z,14.44
2023-04-16T15:46:12.941Z,14.25
2023-04-16T15:48:39.953Z,14.33
2023-04-16T15:51:06.853Z,14.19
2023-04-16T15:53:34.436Z,14.02
2023-04-16T15:56:01.420Z,13.93
2023-04-16T15:58:28.462Z,13.92
2023-04-16T16:00:55.368Z,13.76
2023-04-16T16:03:22.492Z,13.91
2023-04-16T16:05:49.620Z,13.78
2023-04-16T16:08:17.039Z,13.80
2023-04-16T16:10:43.887Z,13.69
2023-04-16T16:13:10.787Z,13.73
2023-04-16T16:15:38.345Z,13.57
2023-04-16T16:18:05.506Z,13.53
2023-04-16T16:20:32.428Z,13.52
2023-04-16T16:22:59.333Z,13.42
2023-04-16T16:25:26.214Z,13.39
2023-04-16T16:27:53.228Z,13.29
2023-04-16T16:30:20.218Z,13.20
2023-04-16T16:32:47.203Z,13.19
2023-04-16T16:35:14.134Z,13.02
2023-04-16T16:37:41.036Z,13.24
2023-04-16T16:40:08.384Z,13.05
2023-04-16T16:42:35.345Z,12.95
2023-04-16T16:45:02.289Z,12.87
2023-04-16T16:47:29.225Z,12.70
2023-04-16T16:49:56.271Z,12.76
2023-04-16T16:52:24.227Z,12.65
2023-04-16T16:54:51.493Z,12.63
2023-04-16T16:57:19.255Z,12.54
2023-04-16T16:59:47.045Z,12.54
2023-04-16T17:02:16.345Z,12.45
2023-04-16T17:04:44.080Z,12.49
2023-04-16T17:07:11.178Z,12.36
2023-04-16T17:09:38.100Z,12.33
2023-04-16T17:12:05.930Z,12.36
2023-04-16T17:14:32.946Z,12.36
2023-04-16T17:16:59.859Z,12.12
2023-04-16T17:19:26.847Z,12.05
2023-04-16T17:21:53.830Z,12.00
2023-04-16T17:24:20.738Z,11.91
2023-04-16T17:26:47.643Z,11.88
2023-04-16T17:29:14.524Z,11.74
2023-04-16T17:31:41.465Z,11.68
2023-04-16T17:34:08.470Z,11.58
2023-04-16T17:36:35.410Z,11.46
2023-04-16T17:39:02.536Z,11.38
2023-04-16T17:41:29.521Z,11.38
2023-04-16T17:43:56.380Z,11.37
2023-04-16T17:46:23.320Z,11.28
2023-04-16T17:49:08.855Z,11.32
2023-04-16T17:51:35.767Z,11.23
2023-04-16T17:54:02.772Z,11.25
2023-04-16T17:56:29.726Z,11.19
2023-04-16T17:59:15.204Z,11.26
2023-04-16T18:01:42.580Z,11.08
2023-04-16T18:04:10.203Z,11.14
2023-04-16T18:06:37.574Z,11.12
2023-04-16T18:09:04.513Z,11.05
2023-04-16T18:11:31.564Z,10.90
2023-04-16T18:13:58.564Z,10.81
2023-04-16T18:16:26.116Z,10.93
2023-04-16T18:18:56.240Z,10.90
2023-04-16T18:21:23.181Z,10.89
2023-04-16T18:24:09.022Z,10.84
2023-04-16T18:26:36.381Z,10.82
2023-04-16T18:29:07.195Z,10.82
2023-04-16T18:31:36.015Z,10.74
2023-04-16T18:34:23.783Z,10.73
2023-04-16T18:37:00.803Z,10.68
2023-04-16T18:39:51.112Z,10.65
2023-04-16T18:42:20.941Z,10.63
2023-04-16T18:44:59.500Z,10.58
2023-04-16T18:47:28.094Z,10.41
2023-04-16T18:49:57.653Z,10.44
2023-04-16T18:52:30.923Z,10.42
2023-04-16T18:54:58.219Z,10.38
2023-04-16T18:57:26.043Z,10.40
2023-04-16T18:59:54.002Z,10.37
2023-04-16T19:02:25.824Z,10.33
2023-04-16T19:04:53.035Z,10.28
2023-04-16T19:07:22.558Z,10.28
2023-04-16T19:10:13.560Z,10.16
2023-04-16T19:12:41.250Z,10.06
2023-04-16T19:15:08.391Z,10.02
2023-04-16T19:17:42.682Z,10.02
2023-04-16T19:20:10.104Z,10.05
2023-04-16T19:22:55.991Z,9.94
2023-04-16T19:25:22.980Z,9.91
2023-04-16T19:27:54.792Z,9.90
2023-04-16T19:30:40.210Z,9.65
2023-04-16T19:33:14.311Z,9.62
2023-04-16T19:35:46.297Z,9.71
2023-04-16T19:38:15.717Z,9.70
2023-04-16T19:40:50.143Z,9.59
2023-04-16T19:43:20.361Z,9.50
2023-04-16T19:48:50.064Z,9.47
2023-04-16T19:51:17.170Z,9.46
2023-04-16T19:53:47.434Z,9.34
2023-04-16T19:56:14.437Z,9.36
2023-04-16T19:58:42.283Z,9.24
2023-04-16T20:01:10.899Z,9.12
2023-04-16T20:03:38.600Z,9.25
2023-04-16T20:06:05.858Z,9.08
2023-04-16T20:08:37.842Z,9.20
2023-04-16T20:11:05.982Z,9.16
2023-04-16T20:13:35.837Z,9.09
2023-04-16T20:16:12.064Z,9.24
2023-04-16T20:18:39.682Z,9.14
2023-04-16T20:21:12.205Z,9.14
2023-04-16T20:23:39.692Z,9.07
2023-04-16T20:26:06.646Z,9.10
2023-04-16T20:28:33.828Z,9.12
2023-04-16T20:31:01.452Z,9.13
2023-04-16T20:33:32.655Z,9.08
2023-04-16T20:36:02.763Z,9.08
2023-04-16T20:38:33.691Z,8.99
2023-04-16T20:41:01.106Z,9.11
2023-04-16T20:43:28.011Z,9.16
2023-04-16T20:45:59.306Z,9.12
2023-04-16T20:48:27.241Z,9.13
2023-04-16T20:51:06.541Z,9.15
2023-04-16T20:53:37.575Z,9.20
2023-04-16T20:56:10.248Z,9.11
2023-04-16T20:58:46.159Z,9.17
2023-04-16T21:01:13.599Z,9.21
2023-04-16T21:03:40.808Z,9.19
2023-04-16T21:06:07.963Z,9.14
2023-04-16T21:08:35.148Z,9.15
2023-04-16T21:11:01.998Z,9.17
2023-04-16T21:13:28.845Z,9.10
2023-04-16T21:15:55.895Z,9.07
2023-04-16T21:18:22.814Z,9.09
2023-04-16T21:20:49.705Z,8.97
2023-04-16T21:23:16.564Z,8.86
2023-04-16T21:25:43.729Z,8.85
2023-04-16T21:28:10.685Z,8.80
2023-04-16T21:30:37.522Z,8.42
2023-04-16T21:33:04.478Z,8.63
2023-04-16T21:35:32.625Z,8.59
2023-04-16T21:37:59.547Z,8.68
2023-04-16T21:40:26.616Z,8.60
2023-04-16T21:42:53.469Z,8.61
2023-04-16T21:45:20.414Z,8.61
2023-04-16T21:47:47.296Z,8.55
2023-04-16T21:50:14.205Z,8.51
2023-04-16T21:52:41.080Z,8.49
2023-04-16T21:55:08.901Z,8.46
2023-04-16T21:57:35.814Z,8.61
2023-04-16T22:00:02.866Z,8.51
2023-04-16T22:02:31.363Z,8.47
2023-04-16T22:04:58.314Z,8.32
2023-04-16T22:07:25.294Z,8.17
2023-04-16T22:09:52.149Z,8.46
2023-04-16T22:12:19.174Z,8.55
2023-04-16T22:14:59.282Z,8.47
2023-04-16T22:17:29.161Z,8.61
2023-04-16T22:19:56.135Z,8.71
2023-04-16T22:22:23.440Z,8.71
2023-04-16T22:24:50.284Z,8.74
2023-04-16T22:27:17.573Z,8.72
2023-04-16T22:29:44.465Z,8.87
2023-04-16T22:32:11.530Z,8.83
2023-04-16T22:34:38.416Z,8.89
2023-04-16T22:37:05.383Z,8.86
2023-04-16T22:39:32.272Z,8.80
2023-04-16T22:41:59.256Z,8.72
2023-04-16T22:44:26.234Z,8.67
2023-04-16T22:46:53.136Z,8.81
2023-04-16T22:49:20.436Z,8.81
2023-04-16T22:51:47.545Z,8.81
2023-04-16T22:54:14.443Z,8.82
2023-04-16T22:56:41.416Z,8.75
2023-04-16T22:59:08.357Z,8.76
2023-04-16T23:01:35.481Z,8.76
2023-04-16T23:04:02.475Z,8.76
2023-04-16T23:06:29.442Z,8.82
2023-04-16T23:08:56.248Z,8.83
2023-04-16T23:11:23.473Z,8.81
2023-04-16T23:13:50.387Z,8.84
2023-04-16T23:16:17.413Z,8.81
2023-04-16T23:18:44.286Z,8.80
2023-04-16T23:21:11.182Z,8.87
2023-04-16T23:23:38.024Z,8.81
2023-04-16T23:26:05.157Z,8.81
2023-04-16T23:28:31.963Z,8.69
2023-04-16T23:30:58.965Z,8.72
2023-04-16T23:33:26.052Z,8.61
2023-04-16T23:35:52.983Z,8.47
2023-04-16T23:38:19.805Z,8.41
2023-04-16T23:40:46.707Z,8.19
2023-04-16T23:43:13.546Z,7.92
2023-04-16T23:45:40.500Z,7.94
2023-04-16T23:48:07.354Z,7.91
2023-04-16T23:50:34.282Z,7.85
2023-04-16T23:53:01.117Z,7.65
2023-04-16T23:55:28.051Z,7.55
2023-04-16T23:57:54.909Z,7.47
